Time;durP1;ratioP1;P1;durP2;ratioP2;P2;SDS_P1;SDS_P2;PMS_P1;PMS_P2;Temp;Humidity;BMP_temperature;BMP_pressure;BME280_temperature;BME280_humidity;BME280_pressure;Samples;Min_cycle;Max_cycle;Signal;HPM_P1;HPM_P2
2022/09/19 00:00:43;;;;;;;1.70;0.77;;;9.40;99.90;;;;;;5046830;28;20224;-71
2022/09/19 00:03:09;;;;;;;0.63;0.60;;;9.30;99.90;;;;;;5029924;28;20501;-70
2022/09/19 00:05:40;;;;;;;4.20;0.70;;;9.30;99.90;;;;;;5045198;28;20473;-70
2022/09/19 00:08:07;;;;;;;0.73;0.60;;;9.30;99.90;;;;;;5049086;28;21051;-71
2022/09/19 00:10:38;;;;;;;1.47;0.70;;;9.20;99.90;;;;;;5028458;28;20486;-71
2022/09/19 00:13:06;;;;;;;0.67;0.67;;;9.20;99.90;;;;;;5048090;28;20547;-71
2022/09/19 00:15:34;;;;;;;1.50;0.80;;;9.10;99.90;;;;;;5046325;28;20462;-71
2022/09/19 00:18:00;;;;;;;0.83;0.63;;;9.10;99.90;;;;;;5061698;28;20454;-72
2022/09/19 00:20:26;;;;;;;0.93;0.60;;;9.10;99.90;;;;;;5044992;28;20468;-72
2022/09/19 00:25:36;;;;;;;1.90;1.00;;;9.10;99.90;;;;;;5044804;28;20311;-70
2022/09/19 00:28:01;;;;;;;1.77;1.30;;;9.10;99.90;;;;;;5034027;28;20951;-71
2022/09/19 00:30:27;;;;;;;1.47;0.90;;;9.10;99.90;;;;;;5027982;28;20223;-70
2022/09/19 00:32:53;;;;;;;1.00;0.90;;;9.10;99.90;;;;;;5047577;28;20215;-70
2022/09/19 00:35:20;;;;;;;4.97;1.40;;;9.00;99.90;;;;;;5046509;28;20227;-71
2022/09/19 00:37:46;;;;;;;7.40;0.80;;;9.00;99.90;;;;;;5044491;28;20219;-71
2022/09/19 00:40:11;;;;;;;1.00;0.77;;;9.00;99.90;;;;;;5044299;28;20528;-71
2022/09/19 00:42:37;;;;;;;0.60;0.60;;;9.00;99.90;;;;;;5028828;28;20224;-71
2022/09/19 00:45:15;;;;;;;0.60;0.40;;;8.90;99.90;;;;;;5039721;28;20220;-70
2022/09/19 00:47:46;;;;;;;0.57;0.53;;;8.90;99.90;;;;;;5040651;28;20225;-70
2022/09/19 00:50:26;;;;;;;0.60;0.60;;;9.00;99.90;;;;;;5048243;28;20462;-72
2022/09/19 00:53:11;;;;;;;1.47;0.60;;;8.90;99.90;;;;;;5044293;28;20569;-72
2022/09/19 00:55:39;;;;;;;0.50;0.50;;;8.90;99.90;;;;;;5026887;28;20805;-71
2022/09/19 00:58:11;;;;;;;0.60;0.60;;;8.90;99.90;;;;;;5043309;28;20516;-71
2022/09/19 01:00:37;;;;;;;3.70;0.50;;;8.90;99.90;;;;;;5044206;28;20538;-70
2022/09/19 01:03:06;;;;;;;0.60;0.60;;;8.90;99.90;;;;;;5029605;28;20462;-70
2022/09/19 01:05:49;;;;;;;6.80;0.67;;;8.90;99.90;;;;;;5038252;28;20517;-70
2022/09/19 01:08:34;;;;;;;1.27;0.87;;;8.90;99.90;;;;;;5045481;28;21036;-70
2022/09/19 01:11:28;;;;;;;3.40;0.77;;;8.90;99.90;;;;;;5046321;28;20489;-71
2022/09/19 01:14:15;;;;;;;0.87;0.70;;;8.90;99.90;;;;;;5044687;28;20454;-71
2022/09/19 01:16:48;;;;;;;0.90;0.50;;;8.80;99.90;;;;;;5027525;28;21043;-69
2022/09/19 01:19:20;;;;;;;1.60;0.77;;;8.80;99.90;;;;;;5030159;28;20600;-71
2022/09/19 01:22:14;;;;;;;2.00;0.60;;;8.90;99.90;;;;;;5050736;28;20994;-70
2022/09/19 01:24:58;;;;;;;0.40;0.40;;;8.80;99.90;;;;;;5059705;28;21052;-71
2022/09/19 01:27:53;;;;;;;2.50;0.73;;;8.90;99.90;;;;;;5044433;28;20972;-71
2022/09/19 01:30:18;;;;;;;0.70;0.50;;;8.90;99.90;;;;;;5036522;28;20458;-71
2022/09/19 01:33:05;;;;;;;2.00;0.70;;;8.90;99.90;;;;;;5029029;28;20468;-71
2022/09/19 01:35:37;;;;;;;1.23;0.70;;;8.90;99.90;;;;;;5042899;28;20211;-70
2022/09/19 01:38:15;;;;;;;2.40;1.00;;;8.90;99.90;;;;;;5044447;28;20458;-70
2022/09/19 01:40:42;;;;;;;2.30;0.50;;;8.90;99.90;;;;;;5036426;28;20447;-72
2022/09/19 01:43:16;;;;;;;2.40;0.70;;;8.90;99.90;;;;;;5028346;28;20474;-70
2022/09/19 01:45:43;;;;;;;3.73;1.07;;;8.90;99.90;;;;;;5036260;28;20454;-71
2022/09/19 01:48:24;;;;;;;1.53;0.70;;;9.00;99.90;;;;;;5045607;28;20911;-72
2022/09/19 01:50:58;;;;;;;4.07;0.87;;;9.00;99.90;;;;;;5044094;28;20545;-71
2022/09/19 01:53:50;;;;;;;3.50;1.43;;;9.00;99.90;;;;;;5059555;28;20503;-72
2022/09/19 01:56:43;;;;;;;5.67;0.90;;;9.00;99.90;;;;;;5043478;28;20469;-71
2022/09/19 01:59:17;;;;;;;3.40;1.03;;;9.00;99.90;;;;;;5028519;28;20491;-71
2022/09/19 02:01:58;;;;;;;1.63;0.87;;;9.00;99.90;;;;;;5042602;28;20498;-70
2022/09/19 02:04:36;;;;;;;1.00;0.93;;;9.00;99.90;;;;;;5043357;28;20454;-72
2022/09/19 02:07:13;;;;;;;1.87;0.70;;;9.10;99.90;;;;;;5045983;28;20473;-70
2022/09/19 02:10:06;;;;;;;7.63;0.90;;;9.10;99.90;;;;;;5028555;28;20466;-71
2022/09/19 02:12:38;;;;;;;0.57;0.57;;;9.10;99.90;;;;;;5034156;28;20460;-70
2022/09/19 02:15:13;;;;;;;2.40;0.93;;;9.10;99.90;;;;;;5044701;28;21044;-71
2022/09/19 02:17:50;;;;;;;0.63;0.60;;;9.10;99.90;;;;;;5042332;28;20519;-71
2022/09/19 02:20:29;;;;;;;3.97;1.20;;;9.10;99.90;;;;;;5044115;28;20478;-71
2022/09/19 02:23:20;;;;;;;1.30;0.80;;;9.10;99.90;;;;;;5044736;28;20519;-70
2022/09/19 02:25:50;;;;;;;4.43;0.83;;;9.10;99.90;;;;;;5024591;28;20462;-72
2022/09/19 02:28:21;;;;;;;1.87;0.77;;;9.10;99.90;;;;;;5057059;28;20845;-71
2022/09/19 02:30:49;;;;;;;2.73;0.90;;;9.10;99.90;;;;;;5044375;28;20517;-72
2022/09/19 02:33:16;;;;;;;1.90;0.93;;;9.10;99.90;;;;;;5043272;28;20563;-70
2022/09/19 02:35:51;;;;;;;1.53;1.00;;;9.10;99.90;;;;;;5042812;28;20462;-71
2022/09/19 02:38:34;;;;;;;1.20;1.10;;;9.10;99.90;;;;;;5043896;28;20462;-71
2022/09/19 02:41:36;;;;;;;1.40;1.20;;;9.20;99.90;;;;;;5043565;28;20997;-71
2022/09/19 02:44:13;;;;;;;3.07;1.20;;;9.20;99.90;;;;;;5058964;28;20862;-71
2022/09/19 02:46:47;;;;;;;1.03;1.00;;;9.20;99.90;;;;;;5027283;28;20453;-72
2022/09/19 02:49:39;;;;;;;2.80;1.07;;;9.20;99.90;;;;;;5030554;28;20485;-71
2022/09/19 02:52:29;;;;;;;1.23;1.10;;;9.20;99.90;;;;;;5014897;28;20462;-71
2022/09/19 02:55:12;;;;;;;5.03;1.13;;;9.20;99.90;;;;;;5031862;28;20543;-72
2022/09/19 02:57:46;;;;;;;1.37;0.90;;;9.20;99.90;;;;;;5047476;28;20851;-72
2022/09/19 03:00:14;;;;;;;2.03;1.00;;;9.20;99.90;;;;;;5045992;28;20465;-71
2022/09/19 03:02:56;;;;;;;4.03;1.33;;;9.30;99.90;;;;;;5036166;28;20476;-72
2022/09/19 03:05:29;;;;;;;2.40;1.47;;;9.30;99.90;;;;;;5039505;28;20557;-71
2022/09/19 03:08:06;;;;;;;1.37;1.10;;;9.30;99.90;;;;;;5037647;28;20546;-71
2022/09/19 03:10:37;;;;;;;2.63;1.00;;;9.30;99.90;;;;;;5031403;28;20219;-70
2022/09/19 03:13:12;;;;;;;1.93;1.10;;;9.30;99.90;;;;;;5052736;28;20459;-71
2022/09/19 03:15:47;;;;;;;2.07;0.97;;;9.30;99.90;;;;;;5037698;28;20462;-70
2022/09/19 03:18:16;;;;;;;4.77;1.10;;;9.30;99.90;;;;;;5035274;28;20479;-70
2022/09/19 03:20:53;;;;;;;1.10;0.93;;;9.30;99.90;;;;;;5033612;28;20469;-71
2022/09/19 03:23:26;;;;;;;1.20;0.73;;;9.30;99.90;;;;;;5022942;28;20475;-71
2022/09/19 03:25:51;;;;;;;2.90;1.30;;;9.30;99.90;;;;;;5037658;28;20455;-71
2022/09/19 03:28:19;;;;;;;2.23;1.10;;;9.30;99.90;;;;;;5039665;28;20481;-70
2022/09/19 03:30:47;;;;;;;1.20;1.10;;;9.30;99.90;;;;;;5020544;28;20223;-71
2022/09/19 03:33:17;;;;;;;2.67;1.17;;;9.30;99.90;;;;;;5032052;28;20465;-71
2022/09/19 03:35:45;;;;;;;1.23;1.10;;;9.40;99.90;;;;;;5018404;28;20478;-71
2022/09/19 03:38:12;;;;;;;6.10;1.53;;;9.40;99.90;;;;;;5042096;28;20459;-70
2022/09/19 03:40:38;;;;;;;1.20;1.10;;;9.40;99.90;;;;;;5033421;28;20455;-71
2022/09/19 03:43:06;;;;;;;2.63;1.13;;;9.40;99.90;;;;;;5030435;28;20475;-71
2022/09/19 03:45:31;;;;;;;2.07;0.97;;;9.40;99.90;;;;;;5046615;28;20830;-71
2022/09/19 03:47:57;;;;;;;2.30;1.27;;;9.40;99.90;;;;;;5038155;28;20494;-70
2022/09/19 03:50:23;;;;;;;5.70;1.10;;;9.40;99.90;;;;;;5029169;28;20636;-71
2022/09/19 03:53:06;;;;;;;1.60;1.00;;;9.40;99.90;;;;;;5032795;28;20219;-72
2022/09/19 03:55:37;;;;;;;1.97;1.23;;;9.40;99.90;;;;;;5031182;28;20513;-70
2022/09/19 03:58:04;;;;;;;2.80;1.13;;;9.40;99.90;;;;;;5022383;28;20547;-70
2022/09/19 04:00:30;;;;;;;2.33;1.07;;;9.40;99.90;;;;;;5028511;28;20571;-70
2022/09/19 04:02:56;;;;;;;2.30;1.37;;;9.40;99.90;;;;;;5035157;28;20471;-71
2022/09/19 04:05:22;;;;;;;2.30;1.00;;;9.40;99.90;;;;;;5031365;28;20454;-72
2022/09/19 04:07:48;;;;;;;2.93;1.10;;;9.40;99.90;;;;;;5032122;28;20461;-71
2022/09/19 04:10:14;;;;;;;1.73;1.20;;;9.40;99.90;;;;;;5034198;28;20231;-70
2022/09/19 04:12:41;;;;;;;2.10;1.10;;;9.40;99.90;;;;;;5048698;28;20240;-71
2022/09/19 04:15:08;;;;;;;5.33;1.90;;;9.40;99.90;;;;;;5034113;28;20454;-71
2022/09/19 04:17:33;;;;;;;3.23;1.50;;;9.40;99.90;;;;;;5028978;28;20537;-70
2022/09/19 04:20:05;;;;;;;5.00;1.27;;;9.40;99.90;;;;;;5050663;28;20994;-70
2022/09/19 04:22:54;;;;;;;1.23;1.13;;;9.40;99.90;;;;;;5037768;28;20821;-71
2022/09/19 04:25:28;;;;;;;4.30;1.33;;;9.40;99.90;;;;;;5038568;28;20836;-70
2022/09/19 04:28:04;;;;;;;5.27;1.50;;;9.40;99.90;;;;;;5040478;28;20508;-70
2022/09/19 04:30:35;;;;;;;4.10;1.50;;;9.40;99.90;;;;;;5023477;28;20493;-72
2022/09/19 04:33:03;;;;;;;5.13;1.43;;;9.40;99.90;;;;;;5032889;28;20463;-71
2022/09/19 04:35:35;;;;;;;8.97;1.30;;;9.50;99.90;;;;;;5035963;28;20474;-72
2022/09/19 04:38:11;;;;;;;3.13;1.33;;;9.50;99.90;;;;;;5039583;28;20572;-71
2022/09/19 04:40:46;;;;;;;3.90;1.30;;;9.40;99.90;;;;;;5046379;28;20469;-71
2022/09/19 04:43:16;;;;;;;1.27;1.10;;;9.50;99.90;;;;;;5036609;28;20475;-71
2022/09/19 04:45:50;;;;;;;3.10;1.33;;;9.50;99.90;;;;;;5037029;28;20519;-71
2022/09/19 04:48:21;;;;;;;5.73;1.40;;;9.50;99.90;;;;;;5038587;28;20542;-70
2022/09/19 04:50:50;;;;;;;5.30;1.70;;;9.50;99.90;;;;;;5032268;28;20470;-71
2022/09/19 04:53:19;;;;;;;4.17;1.20;;;9.50;99.90;;;;;;5050799;28;20466;-71
2022/09/19 04:55:49;;;;;;;3.13;1.53;;;9.40;99.90;;;;;;5024993;28;20462;-71
2022/09/19 04:58:17;;;;;;;1.80;1.23;;;9.50;99.90;;;;;;5036955;28;20510;-70
2022/09/19 05:00:53;;;;;;;5.60;1.50;;;9.50;99.90;;;;;;5018185;28;20469;-71
2022/09/19 05:03:25;;;;;;;3.37;1.10;;;9.50;99.90;;;;;;5036676;28;20550;-72
2022/09/19 05:05:52;;;;;;;4.70;1.57;;;9.50;99.90;;;;;;5029612;28;20973;-71
2022/09/19 05:08:40;;;;;;;2.13;1.60;;;9.50;99.90;;;;;;5042189;28;20456;-71
2022/09/19 05:11:12;;;;;;;2.50;1.00;;;9.50;99.90;;;;;;5029571;28;20463;-70
2022/09/19 05:13:38;;;;;;;3.33;2.00;;;9.50;99.90;;;;;;5023904;28;20511;-71
2022/09/19 05:16:07;;;;;;;4.27;2.00;;;9.50;99.90;;;;;;5040952;28;20451;-71
2022/09/19 05:18:37;;;;;;;3.10;1.80;;;9.50;99.90;;;;;;5023321;28;20512;-71
2022/09/19 05:21:06;;;;;;;3.23;1.50;;;9.50;99.90;;;;;;5045319;28;20469;-70
2022/09/19 05:23:35;;;;;;;3.33;1.40;;;9.50;99.90;;;;;;5041545;28;20470;-71
2022/09/19 05:26:06;;;;;;;6.63;1.70;;;9.50;99.90;;;;;;5038637;28;20512;-71
2022/09/19 05:28:32;;;;;;;3.23;1.67;;;9.50;99.90;;;;;;5045472;28;20458;-71
2022/09/19 05:31:04;;;;;;;3.73;1.40;;;9.50;99.90;;;;;;5062853;28;20458;-71
2022/09/19 05:33:32;;;;;;;3.17;1.80;;;9.50;99.90;;;;;;5034998;28;20549;-70
2022/09/19 05:36:01;;;;;;;1.23;1.10;;;9.50;99.90;;;;;;5025763;28;20522;-72
2022/09/19 05:38:46;;;;;;;2.73;1.63;;;9.50;99.90;;;;;;5036714;28;20457;-70
2022/09/19 05:41:30;;;;;;;6.80;1.60;;;9.60;99.90;;;;;;5032483;28;20461;-71
2022/09/19 05:44:00;;;;;;;4.33;1.30;;;9.50;99.90;;;;;;5037306;28;20458;-71
2022/09/19 05:46:27;;;;;;;4.93;1.57;;;9.60;99.90;;;;;;5031669;28;20448;-72
2022/09/19 05:48:54;;;;;;;4.13;1.40;;;9.60;99.90;;;;;;5042621;28;20204;-72
2022/09/19 05:51:19;;;;;;;1.30;1.20;;;9.60;99.90;;;;;;5041350;28;20462;-71
2022/09/19 05:53:55;;;;;;;2.90;1.30;;;9.60;99.90;;;;;;5050687;28;20274;-71
2022/09/19 05:56:39;;;;;;;1.53;1.40;;;9.70;99.90;;;;;;5033121;28;20624;-71
2022/09/19 05:59:06;;;;;;;2.30;1.53;;;9.70;99.90;;;;;;5039285;28;20462;-72
2022/09/19 06:01:34;;;;;;;1.97;1.50;;;9.70;99.90;;;;;;5036634;28;20545;-71
2022/09/19 06:04:01;;;;;;;2.77;1.40;;;9.70;99.90;;;;;;5035640;28;20541;-72
2022/09/19 06:06:28;;;;;;;3.00;1.80;;;9.70;99.90;;;;;;5035821;28;20223;-72
2022/09/19 06:08:56;;;;;;;4.63;1.60;;;9.70;99.90;;;;;;5034209;28;20836;-71
2022/09/19 06:11:23;;;;;;;5.93;2.40;;;9.80;99.90;;;;;;5031749;28;20466;-71
2022/09/19 06:16:36;;;;;;;3.70;2.10;;;9.80;99.90;;;;;;5037421;28;20525;-72
2022/09/19 06:19:28;;;;;;;5.03;1.43;;;9.90;99.90;;;;;;5037329;28;20500;-73
2022/09/19 06:22:05;;;;;;;1.93;1.47;;;9.90;99.90;;;;;;5035288;28;20562;-70
2022/09/19 06:24:31;;;;;;;2.57;1.40;;;9.90;99.90;;;;;;5054803;28;20549;-70
2022/09/19 06:26:57;;;;;;;2.10;1.80;;;9.90;99.90;;;;;;5036814;28;20802;-71
2022/09/19 06:29:24;;;;;;;2.67;1.70;;;9.90;99.90;;;;;;5049527;28;20838;-72
2022/09/19 06:32:09;;;;;;;1.73;1.63;;;10.00;99.90;;;;;;5034961;28;20473;-69
2022/09/19 06:34:40;;;;;;;2.50;1.70;;;10.00;99.90;;;;;;5034132;28;20473;-70
2022/09/19 06:37:06;;;;;;;3.80;2.07;;;10.00;99.90;;;;;;5043892;28;20523;-70
2022/09/19 06:39:32;;;;;;;1.67;1.57;;;10.00;99.90;;;;;;5034809;28;20504;-70
2022/09/19 06:42:19;;;;;;;11.47;1.97;;;10.00;99.90;;;;;;5046967;28;21005;-71
2022/09/19 06:45:00;;;;;;;2.20;1.50;;;10.00;99.90;;;;;;5040825;28;20462;-70
2022/09/19 06:47:45;;;;;;;3.77;2.30;;;10.10;99.90;;;;;;5035942;28;20454;-70
2022/09/19 06:50:37;;;;;;;2.00;1.27;;;10.10;99.90;;;;;;5048668;28;20522;-71
2022/09/19 06:53:08;;;;;;;5.00;2.00;;;10.10;99.90;;;;;;5046742;28;20473;-70
2022/09/19 06:55:34;;;;;;;2.83;1.37;;;10.10;99.90;;;;;;5049657;28;20450;-71
2022/09/19 06:58:05;;;;;;;3.07;1.60;;;10.20;99.90;;;;;;5047788;28;20466;-70
2022/09/19 07:00:36;;;;;;;2.57;1.90;;;10.20;99.90;;;;;;5045534;28;20458;-71
2022/09/19 07:03:05;;;;;;;3.10;1.33;;;10.30;99.90;;;;;;5042596;28;20605;-70
2022/09/19 07:05:35;;;;;;;5.13;1.93;;;10.20;99.90;;;;;;5038293;28;20508;-70
2022/09/19 07:08:21;;;;;;;10.10;2.40;;;10.30;99.90;;;;;;5039981;28;20459;-71
2022/09/19 07:10:47;;;;;;;2.47;1.47;;;10.30;99.90;;;;;;5043378;28;20458;-71
2022/09/19 07:13:16;;;;;;;3.80;1.93;;;10.40;99.90;;;;;;5040620;28;20963;-70
2022/09/19 07:15:42;;;;;;;2.00;1.57;;;10.40;99.90;;;;;;5039515;28;20223;-70
2022/09/19 07:18:10;;;;;;;6.70;1.77;;;10.40;99.90;;;;;;5050478;28;20475;-72
2022/09/19 07:20:38;;;;;;;5.43;1.83;;;10.50;99.90;;;;;;5037029;28;20481;-71
2022/09/19 07:23:17;;;;;;;2.37;1.97;;;10.50;99.90;;;;;;5035702;28;20878;-70
2022/09/19 07:26:03;;;;;;;2.93;1.93;;;10.60;99.90;;;;;;5035047;28;20485;-70
2022/09/19 07:28:30;;;;;;;5.90;1.47;;;10.60;99.90;;;;;;5044352;28;20607;-71
2022/09/19 07:31:00;;;;;;;2.90;1.77;;;10.70;99.90;;;;;;5038555;28;20459;-71
2022/09/19 07:33:28;;;;;;;4.40;1.97;;;10.70;99.90;;;;;;5027445;28;20863;-70
2022/09/19 07:35:54;;;;;;;3.60;2.17;;;10.70;99.90;;;;;;5034213;28;20450;-71
2022/09/19 07:38:22;;;;;;;2.63;1.57;;;10.80;99.90;;;;;;5044811;28;20465;-70
2022/09/19 07:41:07;;;;;;;2.50;2.20;;;10.80;99.90;;;;;;5039026;28;20542;-71
2022/09/19 07:43:49;;;;;;;2.80;1.90;;;10.80;99.90;;;;;;5039459;28;20974;-72
2022/09/19 07:46:33;;;;;;;3.13;1.33;;;10.90;99.90;;;;;;5040855;28;20855;-71
2022/09/19 07:49:24;;;;;;;2.20;1.80;;;10.90;99.90;;;;;;5038209;28;20514;-72
2022/09/19 07:52:11;;;;;;;2.87;2.00;;;10.90;99.90;;;;;;5051799;28;20455;-70
2022/09/19 07:54:36;;;;;;;2.10;1.90;;;11.00;99.90;;;;;;5034758;28;20508;-71
2022/09/19 07:57:02;;;;;;;1.50;1.33;;;11.00;99.90;;;;;;5052600;28;20239;-71
2022/09/19 07:59:28;;;;;;;2.70;1.73;;;11.00;99.90;;;;;;5036173;28;20700;-72
2022/09/19 08:01:58;;;;;;;3.90;1.90;;;11.10;99.90;;;;;;5035971;28;20256;-70
2022/09/19 08:04:32;;;;;;;1.67;1.53;;;11.10;99.90;;;;;;5038423;28;20454;-71
2022/09/19 08:06:58;;;;;;;7.27;1.90;;;11.20;99.90;;;;;;5037246;28;20466;-71
2022/09/19 08:09:24;;;;;;;4.97;1.90;;;11.20;99.90;;;;;;5024180;28;20544;-70
2022/09/19 08:12:06;;;;;;;2.43;1.90;;;11.20;99.90;;;;;;5045923;28;20350;-69
2022/09/19 08:14:38;;;;;;;2.23;1.80;;;11.30;99.90;;;;;;5043022;28;20872;-70
2022/09/19 08:17:04;;;;;;;2.53;2.33;;;11.30;99.90;;;;;;5038657;28;20463;-71
2022/09/19 08:19:30;;;;;;;5.40;2.50;;;11.40;99.90;;;;;;5050397;28;20508;-72
2022/09/19 08:21:58;;;;;;;5.80;2.43;;;11.40;99.90;;;;;;5033590;28;20230;-70
2022/09/19 08:24:27;;;;;;;4.53;1.77;;;11.50;99.90;;;;;;5037159;28;20987;-72
2022/09/19 08:26:58;;;;;;;2.80;2.27;;;11.50;99.90;;;;;;5029393;28;20478;-70
2022/09/19 08:29:26;;;;;;;2.70;1.77;;;11.60;99.90;;;;;;5028466;28;20801;-71
2022/09/19 08:32:00;;;;;;;3.57;2.30;;;11.60;99.90;;;;;;5033480;28;20447;-70
2022/09/19 08:34:26;;;;;;;3.50;2.00;;;11.70;99.90;;;;;;5056285;28;20465;-71
2022/09/19 08:36:58;;;;;;;4.97;2.60;;;11.70;99.90;;;;;;5041482;28;20470;-71
2022/09/19 08:39:25;;;;;;;4.60;2.10;;;11.80;99.90;;;;;;5024321;28;20463;-72
2022/09/19 08:42:19;;;;;;;3.50;1.83;;;11.80;99.90;;;;;;5039233;28;20480;-70
2022/09/19 08:44:58;;;;;;;7.50;3.53;;;11.90;99.90;;;;;;5026895;28;20459;-72
2022/09/19 08:47:26;;;;;;;2.20;2.00;;;11.90;99.90;;;;;;5023181;28;20515;-71
2022/09/19 08:49:58;;;;;;;6.07;2.10;;;12.00;99.90;;;;;;5041303;28;20825;-72
2022/09/19 08:52:28;;;;;;;3.43;1.93;;;12.00;99.90;;;;;;5037674;28;20896;-72
2022/09/19 08:54:56;;;;;;;3.70;1.50;;;12.10;99.90;;;;;;5051198;28;20482;-71
2022/09/19 08:57:32;;;;;;;6.27;1.63;;;12.20;99.90;;;;;;5034057;28;20473;-71
2022/09/19 09:00:13;;;;;;;2.83;1.90;;;12.20;99.90;;;;;;5034904;28;20468;-71
2022/09/19 09:02:49;;;;;;;3.40;1.60;;;12.20;99.90;;;;;;5043714;28;20474;-71
2022/09/19 09:05:24;;;;;;;4.43;1.60;;;12.30;99.90;;;;;;5044091;28;20481;-71
2022/09/19 09:08:18;;;;;;;2.23;1.53;;;12.40;99.90;;;;;;5021461;28;20536;-71
2022/09/19 09:11:12;;;;;;;1.83;1.63;;;12.40;99.90;;;;;;5039701;28;20459;-71
2022/09/19 09:13:46;;;;;;;2.60;2.30;;;12.40;99.90;;;;;;5046960;28;20520;-70
2022/09/19 09:16:12;;;;;;;2.30;2.03;;;12.40;99.90;;;;;;5027944;28;20455;-71
2022/09/19 09:18:57;;;;;;;2.77;1.80;;;12.50;99.90;;;;;;5020833;28;21003;-71
2022/09/19 09:21:37;;;;;;;2.03;1.83;;;12.50;99.90;;;;;;5043539;28;20217;-70
2022/09/19 09:24:21;;;;;;;5.90;1.87;;;12.60;99.90;;;;;;5014287;28;20465;-71
2022/09/19 09:27:20;;;;;;;2.07;1.87;;;12.60;99.90;;;;;;5030338;28;20462;-71
2022/09/19 09:29:58;;;;;;;6.90;1.90;;;12.60;99.90;;;;;;5035011;28;20469;-72
2022/09/19 09:32:32;;;;;;;1.97;1.70;;;12.60;99.90;;;;;;5035630;28;20541;-73
2022/09/19 09:35:06;;;;;;;2.80;1.90;;;12.70;99.90;;;;;;5046720;28;20447;-72
2022/09/19 09:37:47;;;;;;;3.87;2.10;;;12.70;99.90;;;;;;5040244;28;20888;-70
2022/09/19 09:43:20;;;;;;;5.07;1.93;;;12.80;99.90;;;;;;5030273;28;20564;-71
2022/09/19 09:45:51;;;;;;;3.83;1.80;;;12.80;99.90;;;;;;5021586;28;20517;-70
2022/09/19 09:48:32;;;;;;;2.93;1.60;;;12.80;99.90;;;;;;5049547;28;21052;-71
2022/09/19 09:51:32;;;;;;;3.37;1.40;;;12.90;99.90;;;;;;5027034;28;20489;-71
2022/09/19 09:57:29;;;;;;;5.90;1.70;;;12.90;99.90;;;;;;5045702;28;20454;-71
2022/09/19 10:06:17;;;;;;;6.03;1.87;;;13.10;99.90;;;;;;5022991;28;20783;-71
2022/09/19 10:08:56;;;;;;;8.83;2.03;;;13.10;99.90;;;;;;5014273;28;20471;-72
2022/09/19 10:11:47;;;;;;;8.53;2.50;;;13.30;99.90;;;;;;5035461;28;20520;-72
2022/09/19 10:14:23;;;;;;;2.63;1.90;;;13.40;99.90;;;;;;5037103;28;20470;-71
2022/09/19 10:16:56;;;;;;;3.00;1.53;;;13.40;99.90;;;;;;5035767;28;20993;-71
2022/09/19 10:19:49;;;;;;;7.03;2.37;;;13.40;99.90;;;;;;5034069;28;20836;-70
2022/09/19 10:22:16;;;;;;;2.40;2.10;;;13.60;99.90;;;;;;5026275;28;20483;-70
2022/09/19 10:24:54;;;;;;;8.00;2.30;;;13.70;99.90;;;;;;5029739;28;20454;-71
2022/09/19 10:27:31;;;;;;;3.40;2.30;;;13.80;99.90;;;;;;5040098;28;20498;-71
2022/09/19 10:30:24;;;;;;;3.60;2.03;;;14.00;99.90;;;;;;5030211;28;20554;-71
2022/09/19 10:32:52;;;;;;;3.33;1.77;;;14.00;99.90;;;;;;5036945;28;21077;-71
2022/09/19 10:35:38;;;;;;;3.60;2.20;;;14.10;99.90;;;;;;5032777;28;20839;-70
2022/09/19 10:38:16;;;;;;;3.07;2.20;;;14.10;99.90;;;;;;5033735;28;21030;-71
2022/09/19 10:40:58;;;;;;;1.83;1.67;;;14.10;99.90;;;;;;5032414;28;20458;-71
2022/09/19 10:43:30;;;;;;;2.23;1.67;;;14.10;99.90;;;;;;5050016;28;20467;-71
2022/09/19 10:46:07;;;;;;;1.70;1.60;;;14.30;99.90;;;;;;5034148;28;20528;-71
2022/09/19 10:48:38;;;;;;;2.20;2.00;;;14.30;99.90;;;;;;5024625;28;20585;-71
2022/09/19 10:51:13;;;;;;;1.77;1.20;;;14.30;99.90;;;;;;5035794;28;20482;-70
2022/09/19 10:53:46;;;;;;;4.10;1.40;;;14.50;99.90;;;;;;5046254;28;20829;-71
2022/09/19 10:56:24;;;;;;;4.90;1.50;;;14.50;99.90;;;;;;5040318;28;20455;-71
2022/09/19 10:59:25;;;;;;;4.00;1.37;;;14.60;99.90;;;;;;5039619;28;20485;-71
2022/09/19 11:02:08;;;;;;;2.40;1.60;;;14.70;99.90;;;;;;5027383;28;20904;-71
2022/09/19 11:04:35;;;;;;;3.40;2.10;;;14.80;99.90;;;;;;5051583;28;20572;-71
2022/09/19 11:07:23;;;;;;;5.03;2.10;;;14.80;99.90;;;;;;5038875;28;20211;-71
2022/09/19 11:09:58;;;;;;;6.80;1.90;;;14.80;99.90;;;;;;5036794;28;20553;-72
2022/09/19 11:12:24;;;;;;;2.60;1.77;;;14.80;99.90;;;;;;5056016;28;20442;-71
2022/09/19 11:14:55;;;;;;;2.80;1.47;;;14.70;99.90;;;;;;5035694;28;20454;-71
2022/09/19 11:17:47;;;;;;;2.57;2.03;;;14.70;99.90;;;;;;5027443;28;20536;-70
2022/09/19 11:20:32;;;;;;;2.30;1.33;;;14.80;99.90;;;;;;5049019;28;20459;-71
2022/09/19 11:23:56;;;;;;;1.07;1.07;;;14.80;99.90;;;;;;5030488;28;20524;-71
2022/09/19 11:27:08;;;;;;;7.43;1.87;;;14.90;99.90;;;;;;5037037;28;20459;-71
2022/09/19 11:30:02;;;;;;;3.87;1.57;;;15.00;99.90;;;;;;5041107;28;20461;-72
2022/09/19 11:32:59;;;;;;;2.00;1.10;;;15.10;99.90;;;;;;5037759;28;20458;-72
2022/09/19 11:36:44;;;;;;;1.90;0.97;;;15.10;99.90;;;;;;5045870;28;20587;-72
2022/09/19 11:39:20;;;;;;;1.33;1.17;;;15.10;99.90;;;;;;5046632;28;20457;-72
2022/09/19 11:42:20;;;;;;;3.80;1.53;;;15.20;99.90;;;;;;5054874;28;20445;-71
2022/09/19 11:44:52;;;;;;;2.60;1.50;;;15.20;99.90;;;;;;5043656;28;20446;-71
2022/09/19 11:47:39;;;;;;;2.90;1.07;;;15.20;99.90;;;;;;5046840;28;20470;-72
2022/09/19 11:50:20;;;;;;;3.37;2.90;;;15.30;99.90;;;;;;5040445;28;20458;-72
2022/09/19 11:53:08;;;;;;;1.57;1.30;;;15.30;99.90;;;;;;5042733;28;20434;-71
2022/09/19 11:55:56;;;;;;;7.10;1.60;;;15.30;99.90;;;;;;5036621;28;20443;-70
2022/09/19 11:58:31;;;;;;;3.80;1.87;;;15.40;99.90;;;;;;5043674;28;20497;-72
2022/09/19 12:01:12;;;;;;;5.03;1.87;;;15.50;99.90;;;;;;5057854;28;20446;-72
2022/09/19 12:04:08;;;;;;;9.50;6.90;;;15.60;99.90;;;;;;5052252;28;20498;-71
2022/09/19 12:06:48;;;;;;;7.47;5.70;;;15.60;99.90;;;;;;5039693;28;20822;-71
2022/09/19 12:09:25;;;;;;;5.40;4.00;;;15.70;99.90;;;;;;5030069;28;20447;-71
2022/09/19 12:12:09;;;;;;;5.10;3.40;;;15.70;99.90;;;;;;5040211;28;21008;-72
2022/09/19 12:14:55;;;;;;;9.60;3.50;;;15.70;99.90;;;;;;5032481;28;20871;-73
2022/09/19 12:17:42;;;;;;;11.77;4.50;;;15.70;99.90;;;;;;5047770;28;20847;-72
2022/09/19 12:20:23;;;;;;;27.23;20.07;;;15.70;99.90;;;;;;5046744;28;20519;-72
2022/09/19 12:22:57;;;;;;;16.83;12.00;;;15.70;99.90;;;;;;5024179;28;20463;-71
2022/09/19 12:25:29;;;;;;;14.00;9.53;;;15.70;99.90;;;;;;5035702;28;20460;-72
2022/09/19 12:28:10;;;;;;;13.17;8.37;;;15.70;99.90;;;;;;5030398;28;20453;-72
2022/09/19 12:30:41;;;;;;;8.77;6.20;;;15.70;99.90;;;;;;5046484;28;20481;-70
2022/09/19 12:33:15;;;;;;;6.47;5.00;;;15.60;99.90;;;;;;5048302;28;20573;-70
2022/09/19 12:35:50;;;;;;;4.33;3.80;;;15.50;99.90;;;;;;5053173;28;20491;-72
2022/09/19 12:38:25;;;;;;;4.27;3.00;;;15.50;99.90;;;;;;5031075;28;20973;-73
2022/09/19 12:40:59;;;;;;;2.73;2.20;;;15.50;99.90;;;;;;5030002;28;20450;-72
2022/09/19 12:43:47;;;;;;;3.30;2.73;;;15.50;99.90;;;;;;5045962;28;20554;-73
2022/09/19 12:46:16;;;;;;;6.33;3.40;;;15.50;99.90;;;;;;5046845;28;20477;-71
2022/09/19 12:48:55;;;;;;;38.60;19.30;;;15.50;99.90;;;;;;5046171;28;20462;-72
2022/09/19 12:52:10;;;;;;;46.23;26.90;;;15.50;99.90;;;;;;5055139;28;20507;-70
2022/09/19 12:54:52;;;;;;;18.23;10.73;;;15.60;99.90;;;;;;5047118;28;20451;-71
2022/09/19 12:57:40;;;;;;;5.80;3.77;;;15.60;99.90;;;;;;5043832;28;20467;-72
2022/09/19 13:00:12;;;;;;;6.43;3.20;;;15.60;99.90;;;;;;5043274;28;20462;-71
2022/09/19 13:03:07;;;;;;;2.87;2.30;;;15.50;99.90;;;;;;5045321;28;20527;-70
2022/09/19 13:05:44;;;;;;;1.70;1.33;;;15.50;99.90;;;;;;5024898;28;20469;-70
2022/09/19 13:08:17;;;;;;;1.80;1.33;;;15.50;99.90;;;;;;5056139;28;20868;-72
2022/09/19 13:10:50;;;;;;;2.50;2.10;;;15.40;99.90;;;;;;5043843;28;20874;-72
2022/09/19 13:13:28;;;;;;;10.33;7.43;;;15.40;99.90;;;;;;5059216;28;21076;-71
2022/09/19 13:16:11;;;;;;;5.20;4.30;;;15.40;99.90;;;;;;5042328;28;21138;-71
2022/09/19 13:24:50;;;;;;;1.67;1.33;;;15.30;99.90;;;;;;5041747;28;20485;-71
2022/09/19 13:27:16;;;;;;;2.17;1.17;;;15.30;99.90;;;;;;5041370;28;20468;-72
2022/09/19 13:29:45;;;;;;;3.47;2.30;;;15.30;99.90;;;;;;5037592;28;20455;-71
2022/09/19 13:32:28;;;;;;;2.53;1.83;;;15.20;99.90;;;;;;5038955;28;20482;-71
2022/09/19 13:35:11;;;;;;;4.00;2.00;;;15.30;99.90;;;;;;5037034;28;20515;-71
2022/09/19 13:37:37;;;;;;;1.43;1.37;;;15.20;99.90;;;;;;5027151;28;20450;-71
2022/09/19 13:40:14;;;;;;;4.10;2.10;;;15.30;99.90;;;;;;5035625;28;20525;-71
2022/09/19 13:42:43;;;;;;;2.20;1.90;;;15.40;99.90;;;;;;5038776;28;20237;-71
2022/09/19 13:45:27;;;;;;;1.50;1.40;;;15.50;99.90;;;;;;5039804;28;20518;-72
2022/09/19 13:48:01;;;;;;;4.00;1.53;;;15.60;99.90;;;;;;5030768;28;20455;-71
2022/09/19 13:50:39;;;;;;;2.23;1.60;;;15.60;99.90;;;;;;5037230;28;20575;-72
2022/09/19 13:53:06;;;;;;;6.43;1.70;;;15.70;99.90;;;;;;5038002;28;20508;-71
2022/09/19 13:55:41;;;;;;;4.20;1.67;;;15.80;99.90;;;;;;5034557;28;20451;-72
2022/09/19 13:58:33;;;;;;;2.40;1.80;;;15.90;99.90;;;;;;5035074;28;20447;-71